createdAt,value
2019-03-29T00:01:41.734Z,9.53
2019-03-29T00:04:13.894Z,13.33
2019-03-29T00:06:45.818Z,9.90
2019-03-29T00:09:17.140Z,9.90
2019-03-29T00:11:48.578Z,9.30
2019-03-29T00:14:23.374Z,11.73
2019-03-29T00:16:53.382Z,10.27
2019-03-29T00:19:25.673Z,10.33
2019-03-29T00:21:57.346Z,8.73
2019-03-29T00:24:28.665Z,10.40
2019-03-29T00:27:00.350Z,8.60
2019-03-29T00:29:32.152Z,9.43
2019-03-29T00:32:03.348Z,9.60
2019-03-29T00:34:35.152Z,8.63
2019-03-29T00:37:06.357Z,10.13
2019-03-29T00:39:37.794Z,15.40
2019-03-29T00:42:09.832Z,9.13
2019-03-29T00:44:41.156Z,9.53
2019-03-29T00:47:12.836Z,9.53
2019-03-29T00:49:45.724Z,9.50
2019-03-29T00:52:17.638Z,9.80
2019-03-29T00:54:49.320Z,9.67
2019-03-29T00:57:20.648Z,12.30
2019-03-29T00:59:52.922Z,9.93
2019-03-29T01:02:25.086Z,8.70
2019-03-29T01:04:57.488Z,12.07
2019-03-29T01:07:29.289Z,9.97
2019-03-29T01:10:00.848Z,10.23
2019-03-29T01:12:33.227Z,8.90
2019-03-29T01:15:05.184Z,11.83
2019-03-29T01:17:36.735Z,11.00
2019-03-29T01:20:16.213Z,9.90
2019-03-29T01:22:48.188Z,12.50
2019-03-29T01:28:24.619Z,10.70
2019-03-29T01:30:56.056Z,10.10
2019-03-29T01:33:27.619Z,9.97
2019-03-29T01:35:58.943Z,10.47
2019-03-29T01:38:30.382Z,11.60
2019-03-29T01:41:01.583Z,13.63
2019-03-29T01:43:33.145Z,11.30
2019-03-29T01:46:05.787Z,11.40
2019-03-29T01:48:37.346Z,12.93
2019-03-29T01:51:09.029Z,10.30
2019-03-29T01:53:40.709Z,12.30
2019-03-29T01:56:12.631Z,18.00
2019-03-29T01:58:44.079Z,14.47
2019-03-29T02:01:15.273Z,13.43
2019-03-29T02:03:46.837Z,15.17
2019-03-29T02:06:19.190Z,14.07
2019-03-29T02:08:51.517Z,13.00
2019-03-29T02:11:23.200Z,12.97
2019-03-29T02:13:54.892Z,14.13
2019-03-29T02:16:26.442Z,13.80
2019-03-29T02:18:58.001Z,13.23
2019-03-29T02:21:30.283Z,13.00
2019-03-29T02:24:01.851Z,14.50
2019-03-29T02:26:34.235Z,16.67
2019-03-29T02:29:06.407Z,13.83
2019-03-29T02:31:41.920Z,12.53
2019-03-29T02:34:11.094Z,13.30
2019-03-29T02:36:42.534Z,13.73
2019-03-29T02:39:14.453Z,12.83
2019-03-29T02:41:46.868Z,13.10
2019-03-29T02:44:18.776Z,13.70
2019-03-29T02:46:50.225Z,13.50
2019-03-29T02:49:21.657Z,14.03
2019-03-29T02:51:53.940Z,14.33
2019-03-29T02:54:25.415Z,15.73
2019-03-29T02:56:57.063Z,16.60
2019-03-29T02:59:29.343Z,13.50
2019-03-29T03:02:01.268Z,15.77
2019-03-29T03:04:32.824Z,14.47
2019-03-29T03:07:04.266Z,12.93
2019-03-29T03:09:35.469Z,18.07
2019-03-29T03:12:06.908Z,15.60
2019-03-29T03:14:38.592Z,14.17
2019-03-29T03:17:10.392Z,15.00
2019-03-29T03:19:41.837Z,16.70
2019-03-29T03:22:13.034Z,19.00
2019-03-29T03:24:44.365Z,16.90
2019-03-29T03:27:15.678Z,14.07
2019-03-29T03:29:48.600Z,17.53
2019-03-29T03:32:20.601Z,14.13
2019-03-29T03:34:52.774Z,17.37
2019-03-29T03:37:24.238Z,14.10
2019-03-29T03:39:55.283Z,17.17
2019-03-29T03:42:27.687Z,15.30
2019-03-29T03:44:59.251Z,14.63
2019-03-29T03:47:31.169Z,18.20
2019-03-29T03:50:02.861Z,17.27
2019-03-29T03:52:34.408Z,13.20
2019-03-29T03:55:06.211Z,15.33
2019-03-29T03:57:40.173Z,19.80
2019-03-29T04:00:11.972Z,15.37
2019-03-29T04:02:43.895Z,18.07
2019-03-29T04:05:19.293Z,14.43
2019-03-29T04:07:50.979Z,18.90
2019-03-29T04:10:22.541Z,15.47
2019-03-29T04:12:54.703Z,13.97
2019-03-29T04:15:26.622Z,18.20
2019-03-29T04:17:57.826Z,21.27
2019-03-29T04:20:29.383Z,17.97
2019-03-29T04:23:00.705Z,18.50
2019-03-29T04:25:32.397Z,16.73
2019-03-29T04:28:03.828Z,15.30
2019-03-29T04:30:35.871Z,16.20
2019-03-29T04:33:11.111Z,19.03
2019-03-29T04:35:40.191Z,16.60
2019-03-29T04:38:11.873Z,20.17
2019-03-29T04:40:43.674Z,16.67
2019-03-29T04:43:16.199Z,20.80
2019-03-29T04:45:48.237Z,19.57
2019-03-29T04:48:19.799Z,16.90
2019-03-29T04:50:53.157Z,14.83
2019-03-29T04:53:25.320Z,17.97
2019-03-29T04:55:56.880Z,16.37
2019-03-29T04:58:30.240Z,16.53
2019-03-29T05:01:02.042Z,16.07
2019-03-29T05:03:33.964Z,18.30
2019-03-29T05:06:07.335Z,18.43
2019-03-29T05:08:38.887Z,17.57
2019-03-29T05:11:10.330Z,18.40
2019-03-29T05:13:41.892Z,18.77
2019-03-29T05:16:13.334Z,19.40
2019-03-29T05:18:44.892Z,18.23
2019-03-29T05:21:17.414Z,19.10
2019-03-29T05:23:48.855Z,15.13
2019-03-29T05:26:21.136Z,17.40
2019-03-29T05:28:52.826Z,17.47
2019-03-29T05:31:24.619Z,21.70
2019-03-29T05:33:56.066Z,22.90
2019-03-29T05:36:27.503Z,21.40
2019-03-29T05:38:59.786Z,20.20
2019-03-29T05:41:31.348Z,17.07
2019-03-29T05:44:02.669Z,17.70
2019-03-29T05:46:34.166Z,16.20
2019-03-29T05:49:05.546Z,20.60
2019-03-29T05:51:37.348Z,21.13
2019-03-29T05:54:08.677Z,18.13
2019-03-29T05:56:40.592Z,19.27
2019-03-29T05:59:12.162Z,19.23
2019-03-29T06:01:44.912Z,19.50
2019-03-29T06:04:16.834Z,19.23
2019-03-29T06:06:48.396Z,18.10
2019-03-29T06:09:20.316Z,23.27
2019-03-29T06:11:52.121Z,20.13
2019-03-29T06:14:24.163Z,20.20
2019-03-29T06:16:55.601Z,18.00
2019-03-29T06:19:27.522Z,18.77
2019-03-29T06:21:59.083Z,21.60
2019-03-29T06:24:30.528Z,22.80
2019-03-29T06:27:01.848Z,18.40
2019-03-29T06:29:33.649Z,21.93
2019-03-29T06:32:04.857Z,20.03
2019-03-29T06:34:36.408Z,20.53
2019-03-29T06:37:08.093Z,22.60
2019-03-29T06:39:40.372Z,25.20
2019-03-29T06:42:12.174Z,23.67
2019-03-29T06:44:44.452Z,23.03
2019-03-29T06:47:16.379Z,25.30
2019-03-29T06:49:47.936Z,23.37
2019-03-29T06:52:19.619Z,28.23
2019-03-29T06:54:51.778Z,21.60
2019-03-29T06:57:23.821Z,20.70
2019-03-29T06:59:55.622Z,24.30
2019-03-29T07:02:27.669Z,21.13
2019-03-29T07:05:00.461Z,21.43
2019-03-29T07:07:32.108Z,22.13
2019-03-29T07:10:03.429Z,27.00
2019-03-29T07:12:34.868Z,23.30
2019-03-29T07:15:06.432Z,22.60
2019-03-29T07:17:38.232Z,19.67
2019-03-29T07:20:09.795Z,22.10
2019-03-29T07:22:40.995Z,21.90
2019-03-29T07:25:12.444Z,19.63
2019-03-29T07:27:50.592Z,20.50
2019-03-29T07:30:17.003Z,20.40
2019-03-29T07:32:48.201Z,26.80
2019-03-29T07:35:19.757Z,25.50
2019-03-29T07:37:50.961Z,23.47
2019-03-29T07:40:22.523Z,21.37
2019-03-29T07:42:53.728Z,20.77
2019-03-29T07:45:24.925Z,22.90
2019-03-29T07:47:56.252Z,20.50
2019-03-29T07:50:28.044Z,25.70
2019-03-29T07:52:59.332Z,21.80
2019-03-29T07:55:30.690Z,20.47
2019-03-29T07:58:03.571Z,20.43
2019-03-29T08:00:34.896Z,20.90
2019-03-29T08:03:06.217Z,24.03
2019-03-29T08:05:37.544Z,24.33
2019-03-29T08:08:22.734Z,20.93
2019-03-29T08:10:41.620Z,19.80
2019-03-29T08:13:13.181Z,21.33
2019-03-29T08:15:44.623Z,22.80
2019-03-29T08:18:15.822Z,23.93
2019-03-29T08:20:47.027Z,28.00
2019-03-29T08:23:18.227Z,27.50
2019-03-29T08:25:49.433Z,22.03
2019-03-29T08:28:20.985Z,20.20
2019-03-29T08:30:52.193Z,23.10
2019-03-29T08:33:23.509Z,22.23
2019-03-29T08:35:55.069Z,18.87
2019-03-29T08:38:26.273Z,34.53
2019-03-29T08:40:57.601Z,22.20
2019-03-29T08:43:28.676Z,24.80
2019-03-29T08:46:00.237Z,21.70
2019-03-29T08:48:31.797Z,20.70
2019-03-29T08:51:03.839Z,16.47
2019-03-29T08:53:35.044Z,19.40
2019-03-29T08:56:06.605Z,19.00
2019-03-29T08:58:37.810Z,17.60
2019-03-29T09:01:09.124Z,21.07
2019-03-29T09:03:41.767Z,22.20
2019-03-29T09:06:13.087Z,16.70
2019-03-29T09:08:44.286Z,18.47
2019-03-29T09:11:15.727Z,16.17
2019-03-29T09:13:47.412Z,16.70
2019-03-29T09:16:18.615Z,17.23
2019-03-29T09:18:49.698Z,16.80
2019-03-29T09:21:20.891Z,13.63
2019-03-29T09:23:52.097Z,11.70
2019-03-29T09:26:23.416Z,16.20
2019-03-29T09:28:54.736Z,13.90
2019-03-29T09:31:26.298Z,15.27
2019-03-29T09:33:58.760Z,16.33
2019-03-29T09:36:30.260Z,18.03
2019-03-29T09:39:02.543Z,16.10
2019-03-29T09:41:34.827Z,15.47
2019-03-29T09:44:06.747Z,15.50
2019-03-29T09:46:38.066Z,16.90
2019-03-29T09:49:09.626Z,13.30
2019-03-29T09:51:41.190Z,21.00
2019-03-29T09:54:12.870Z,14.67
2019-03-29T09:56:44.312Z,14.17
2019-03-29T09:59:16.595Z,13.57
2019-03-29T10:01:47.916Z,13.23
2019-03-29T10:04:20.315Z,10.60
2019-03-29T10:06:52.116Z,15.33
2019-03-29T10:09:23.318Z,11.60
2019-03-29T10:11:54.638Z,9.93
2019-03-29T10:14:26.443Z,10.83
2019-03-29T10:16:57.644Z,12.43
2019-03-29T10:19:29.323Z,12.90
2019-03-29T10:22:00.644Z,11.27
2019-03-29T10:24:31.843Z,9.70
2019-03-29T10:27:03.294Z,12.20
2019-03-29T10:29:34.494Z,9.93
2019-03-29T10:32:09.468Z,13.00
2019-03-29T10:34:40.130Z,10.83
2019-03-29T10:37:11.450Z,15.20
2019-03-29T10:39:43.017Z,11.50
2019-03-29T10:42:14.697Z,10.50
2019-03-29T10:44:49.204Z,10.40
2019-03-29T10:47:19.616Z,11.70
2019-03-29T10:49:50.818Z,10.57
2019-03-29T10:52:22.739Z,11.60
2019-03-29T10:54:53.944Z,10.03
2019-03-29T10:57:25.144Z,12.47
2019-03-29T10:59:56.462Z,10.90
2019-03-29T11:02:28.033Z,11.00
2019-03-29T11:04:59.353Z,13.53
2019-03-29T11:07:31.266Z,12.23
2019-03-29T11:10:02.766Z,11.77
2019-03-29T11:12:34.028Z,12.07
2019-03-29T11:15:06.899Z,14.60
2019-03-29T11:17:38.232Z,16.60
2019-03-29T11:20:21.309Z,13.53
2019-03-29T11:22:52.514Z,12.67
2019-03-29T11:25:24.198Z,13.10
2019-03-29T11:27:55.880Z,14.23
2019-03-29T11:30:41.147Z,11.00
2019-03-29T11:33:00.079Z,9.30
2019-03-29T11:35:32.893Z,9.53
2019-03-29T11:38:04.168Z,11.33
2019-03-29T11:40:35.490Z,13.80
2019-03-29T11:43:06.814Z,12.50
2019-03-29T11:45:38.137Z,12.80
2019-03-29T11:48:09.856Z,11.60
2019-03-29T11:50:41.375Z,16.70
2019-03-29T11:53:12.574Z,11.73
2019-03-29T11:55:44.138Z,12.93
2019-03-29T11:58:15.334Z,18.37
2019-03-29T12:00:46.783Z,12.40
2019-03-29T12:03:18.459Z,11.80
2019-03-29T12:05:49.777Z,11.87
2019-03-29T12:08:21.339Z,14.73
2019-03-29T12:10:53.190Z,11.33
2019-03-29T12:13:24.941Z,12.83
2019-03-29T12:15:56.636Z,13.20
2019-03-29T12:18:30.706Z,13.10
2019-03-29T12:21:01.904Z,11.50
2019-03-29T12:23:33.465Z,11.27
2019-03-29T12:26:04.788Z,11.00
2019-03-29T12:28:35.989Z,13.43
2019-03-29T12:31:08.270Z,12.93
2019-03-29T12:33:39.470Z,15.27
2019-03-29T12:36:10.672Z,11.90
2019-03-29T12:38:41.872Z,10.50
2019-03-29T12:41:13.073Z,11.30
2019-03-29T12:43:55.016Z,14.03
2019-03-29T12:46:17.396Z,11.40
2019-03-29T12:48:50.284Z,13.50
2019-03-29T12:51:21.488Z,18.67
2019-03-29T12:53:53.039Z,11.23
2019-03-29T12:56:24.962Z,12.47
2019-03-29T12:58:56.524Z,12.97
2019-03-29T13:01:38.551Z,14.07
2019-03-29T13:04:01.209Z,13.30
2019-03-29T13:06:32.892Z,14.93
2019-03-29T13:09:05.046Z,13.77
2019-03-29T13:11:37.688Z,10.93
2019-03-29T13:14:10.666Z,12.53
2019-03-29T13:16:42.374Z,10.77
2019-03-29T13:19:13.695Z,21.30
2019-03-29T13:21:45.732Z,13.40
2019-03-29T13:24:17.539Z,13.80
2019-03-29T13:26:54.050Z,11.70
2019-03-29T13:29:23.898Z,13.17
2019-03-29T13:31:55.820Z,13.73
2019-03-29T13:34:27.140Z,12.20
2019-03-29T13:36:58.582Z,12.87
2019-03-29T13:39:29.664Z,13.10
2019-03-29T13:42:00.984Z,11.93
2019-03-29T13:44:32.909Z,12.60
2019-03-29T13:47:05.072Z,13.50
2019-03-29T13:49:36.270Z,11.47
2019-03-29T13:52:07.708Z,11.57
2019-03-29T13:54:39.033Z,11.90
2019-03-29T13:57:10.597Z,12.03
2019-03-29T13:59:41.912Z,11.40
2019-03-29T14:02:13.238Z,14.30
2019-03-29T14:04:44.797Z,11.50
2019-03-29T14:07:16.356Z,10.07
2019-03-29T14:09:47.802Z,15.23
2019-03-29T14:12:19.005Z,11.97
2019-03-29T14:14:50.323Z,14.37
2019-03-29T14:17:21.528Z,11.20
2019-03-29T14:19:52.843Z,16.23
2019-03-29T14:22:24.171Z,12.80
2019-03-29T14:24:55.498Z,12.77
2019-03-29T14:27:26.810Z,12.90
2019-03-29T14:30:04.172Z,12.17
2019-03-29T14:32:31.129Z,11.07
2019-03-29T14:35:02.334Z,14.40
2019-03-29T14:37:33.772Z,10.13
2019-03-29T14:40:05.941Z,11.00
2019-03-29T14:42:37.263Z,14.20
2019-03-29T14:45:09.778Z,13.50
2019-03-29T14:47:43.458Z,12.77
2019-03-29T14:50:17.699Z,12.40
2019-03-29T14:52:49.259Z,18.30
2019-03-29T14:55:20.463Z,14.43
2019-03-29T14:57:51.665Z,15.43
2019-03-29T15:00:36.664Z,14.57
2019-03-29T15:03:08.104Z,13.63
2019-03-29T15:05:39.666Z,12.60
2019-03-29T15:08:10.871Z,12.53
2019-03-29T15:10:41.955Z,12.67
2019-03-29T15:13:13.153Z,11.77
2019-03-29T15:15:44.770Z,16.03
2019-03-29T15:18:16.155Z,14.30
2019-03-29T15:20:53.628Z,21.13
2019-03-29T15:23:20.715Z,14.83
2019-03-29T15:25:51.929Z,12.13
2019-03-29T15:28:23.483Z,14.70
2019-03-29T15:30:54.801Z,16.57
2019-03-29T15:33:26.120Z,15.60
2019-03-29T15:35:57.683Z,15.20
2019-03-29T15:38:29.007Z,14.60
2019-03-29T15:41:01.173Z,15.90
2019-03-29T15:43:32.731Z,14.90
2019-03-29T15:46:04.168Z,16.27
2019-03-29T15:48:35.372Z,15.10
2019-03-29T15:51:07.111Z,15.80
2019-03-29T15:53:40.171Z,15.83
2019-03-29T15:56:11.491Z,17.70
2019-03-29T15:58:42.818Z,20.00
2019-03-29T16:01:14.263Z,16.33
2019-03-29T16:03:45.942Z,15.80
2019-03-29T16:06:17.141Z,15.57
2019-03-29T16:08:48.577Z,13.87
2019-03-29T16:11:22.545Z,15.53
2019-03-29T16:13:53.502Z,15.33
2019-03-29T16:16:25.185Z,18.87
2019-03-29T16:18:56.750Z,15.53
2019-03-29T16:21:28.663Z,15.77
2019-03-29T16:23:59.988Z,15.67
2019-03-29T16:26:31.670Z,15.10
2019-03-29T16:29:02.989Z,16.13
2019-03-29T16:31:36.367Z,14.17
2019-03-29T16:34:07.673Z,13.80
2019-03-29T16:36:39.473Z,16.60
2019-03-29T16:39:10.915Z,16.07
2019-03-29T16:41:42.238Z,15.17
2019-03-29T16:44:13.811Z,21.90
2019-03-29T16:46:46.078Z,14.93
2019-03-29T16:49:17.530Z,14.33
2019-03-29T16:51:49.081Z,17.43
2019-03-29T16:54:20.282Z,17.77
2019-03-29T16:56:51.723Z,17.83
2019-03-29T16:59:24.250Z,14.90
2019-03-29T17:01:55.452Z,13.87
2019-03-29T17:04:26.768Z,13.63
2019-03-29T17:06:59.048Z,14.13
2019-03-29T17:09:30.375Z,14.60
2019-03-29T17:12:01.576Z,13.87
2019-03-29T17:14:32.771Z,14.10
2019-03-29T17:17:03.975Z,14.20
2019-03-29T17:19:35.185Z,18.57
2019-03-29T17:22:06.378Z,17.13
2019-03-29T17:24:37.580Z,16.50
2019-03-29T17:27:08.904Z,15.60
2019-03-29T17:29:40.702Z,17.07
2019-03-29T17:32:12.140Z,16.73
2019-03-29T17:34:43.478Z,14.83
2019-03-29T17:37:14.668Z,19.27
2019-03-29T17:39:46.108Z,17.63
2019-03-29T17:42:18.029Z,14.47
2019-03-29T17:44:49.827Z,17.10
2019-03-29T17:47:21.153Z,20.30
2019-03-29T17:49:52.474Z,17.07
2019-03-29T17:52:24.162Z,17.30
2019-03-29T17:54:55.354Z,17.50
2019-03-29T17:57:27.153Z,19.07
2019-03-29T17:59:58.356Z,17.80
2019-03-29T18:02:29.681Z,18.60
2019-03-29T18:05:01.119Z,22.10
2019-03-29T18:07:32.443Z,20.67
2019-03-29T18:10:03.760Z,21.33
2019-03-29T18:12:35.202Z,17.10
2019-03-29T18:15:06.888Z,17.83
2019-03-29T18:17:38.325Z,20.83
2019-03-29T18:20:16.976Z,20.13
2019-03-29T18:22:48.288Z,18.07
2019-03-29T18:25:19.727Z,18.03
2019-03-29T18:27:51.052Z,24.60
2019-03-29T18:30:34.735Z,20.53
2019-03-29T18:33:06.173Z,17.57
2019-03-29T18:35:37.616Z,21.97
2019-03-29T18:38:08.938Z,21.10
2019-03-29T18:40:40.144Z,18.13
2019-03-29T18:43:11.340Z,20.17
2019-03-29T18:45:42.906Z,21.63
2019-03-29T18:48:14.101Z,17.50
2019-03-29T18:50:45.903Z,18.37
2019-03-29T18:53:17.104Z,21.47
2019-03-29T18:55:48.307Z,19.60
2019-03-29T18:58:19.506Z,19.03
2019-03-29T19:00:50.826Z,19.40
2019-03-29T19:03:22.027Z,19.37
2019-03-29T19:05:54.199Z,17.60
2019-03-29T19:08:25.511Z,18.40
2019-03-29T19:10:56.718Z,25.53
2019-03-29T19:13:28.394Z,18.53
2019-03-29T19:15:59.958Z,20.30
2019-03-29T19:18:32.235Z,17.87
2019-03-29T19:21:03.680Z,16.10
2019-03-29T19:23:35.118Z,21.03
2019-03-29T19:26:06.445Z,20.10
2019-03-29T19:28:38.124Z,18.03
2019-03-29T19:31:09.326Z,20.60
2019-03-29T19:33:40.644Z,17.23
2019-03-29T19:36:11.963Z,18.27
2019-03-29T19:38:43.170Z,19.37
2019-03-29T19:41:15.089Z,22.97
2019-03-29T19:43:47.371Z,18.30
2019-03-29T19:46:18.570Z,24.40
2019-03-29T19:48:50.131Z,19.07
2019-03-29T19:51:21.812Z,18.33
2019-03-29T19:54:06.733Z,20.97
2019-03-29T19:56:28.448Z,19.23
2019-03-29T19:59:00.228Z,22.40
2019-03-29T20:01:31.796Z,17.70
2019-03-29T20:04:03.220Z,19.90
2019-03-29T20:06:34.779Z,19.13
2019-03-29T20:09:08.982Z,18.53
2019-03-29T20:11:40.664Z,18.73
2019-03-29T20:14:12.346Z,20.43
2019-03-29T20:16:44.266Z,23.27
2019-03-29T20:19:19.918Z,23.20
2019-03-29T20:21:49.917Z,19.40
2019-03-29T20:24:21.836Z,21.90
2019-03-29T20:26:54.354Z,22.70
2019-03-29T20:29:26.520Z,20.83
2019-03-29T20:31:58.554Z,20.80
2019-03-29T20:34:29.995Z,23.43
2019-03-29T20:37:02.042Z,22.13
2019-03-29T20:39:34.083Z,21.67
2019-03-29T20:42:05.397Z,18.93
2019-03-29T20:44:36.717Z,18.97
2019-03-29T20:47:08.764Z,21.93
2019-03-29T20:49:40.202Z,29.30
2019-03-29T20:52:12.129Z,21.47
2019-03-29T20:54:43.446Z,22.87
2019-03-29T20:57:15.406Z,23.60
2019-03-29T20:59:46.857Z,24.23
2019-03-29T21:02:18.847Z,20.27
2019-03-29T21:04:51.249Z,23.43
2019-03-29T21:07:23.058Z,23.53
2019-03-29T21:09:54.613Z,22.67
2019-03-29T21:12:26.654Z,21.87
2019-03-29T21:14:58.099Z,22.00
2019-03-29T21:17:30.616Z,25.83
2019-03-29T21:20:02.181Z,26.23
2019-03-29T21:22:34.459Z,21.10
2019-03-29T21:25:06.379Z,21.20
2019-03-29T21:27:38.058Z,21.87
2019-03-29T21:30:11.195Z,19.80
2019-03-29T21:32:43.103Z,22.17
2019-03-29T21:35:20.002Z,19.07
2019-03-29T21:37:51.148Z,22.37
2019-03-29T21:40:23.066Z,23.50
2019-03-29T21:42:55.110Z,21.63
2019-03-29T21:45:29.050Z,26.70
2019-03-29T21:48:10.019Z,22.57
2019-03-29T21:50:33.999Z,22.97
2019-03-29T21:53:05.676Z,21.40
2019-03-29T21:55:37.594Z,22.30
2019-03-29T21:58:09.154Z,21.83
2019-03-29T22:00:40.961Z,20.60
2019-03-29T22:03:12.279Z,22.00
2019-03-29T22:05:43.960Z,21.57
2019-03-29T22:08:17.955Z,20.10
2019-03-29T22:10:49.605Z,20.60
2019-03-29T22:13:21.173Z,22.90
2019-03-29T22:15:52.606Z,21.50
2019-03-29T22:18:37.067Z,21.90
2019-03-29T22:20:57.291Z,25.03
2019-03-29T22:23:28.851Z,21.37
2019-03-29T22:26:01.251Z,20.33
2019-03-29T22:28:32.574Z,23.90
2019-03-29T22:31:04.021Z,21.93
2019-03-29T22:33:35.461Z,21.40
2019-03-29T22:36:08.156Z,26.27
2019-03-29T22:38:39.777Z,18.37
2019-03-29T22:41:11.340Z,19.83
2019-03-29T22:43:42.899Z,20.60
2019-03-29T22:46:14.467Z,26.13
2019-03-29T22:48:53.033Z,20.00
2019-03-29T22:51:19.751Z,21.90
2019-03-29T22:53:51.549Z,23.47
2019-03-29T22:56:22.865Z,25.57
2019-03-29T22:58:54.788Z,38.10
2019-03-29T23:01:27.193Z,43.67
2019-03-29T23:03:58.511Z,48.77
2019-03-29T23:06:29.831Z,43.80
2019-03-29T23:09:01.995Z,41.77
2019-03-29T23:11:34.396Z,41.80
2019-03-29T23:14:05.959Z,33.13
2019-03-29T23:16:37.639Z,31.77
2019-03-29T23:19:09.921Z,26.70
2019-03-29T23:21:41.241Z,38.17
2019-03-29T23:24:13.161Z,38.93
2019-03-29T23:26:44.603Z,35.93
2019-03-29T23:29:16.045Z,27.93
2019-03-29T23:31:48.447Z,27.27
2019-03-29T23:34:19.769Z,26.40
2019-03-29T23:36:51.809Z,27.40
2019-03-29T23:39:24.209Z,33.53
2019-03-29T23:41:55.771Z,30.17
2019-03-29T23:44:27.091Z,35.73
2019-03-29T23:46:58.653Z,37.97
2019-03-29T23:49:30.455Z,33.80
2019-03-29T23:52:01.905Z,33.33
2019-03-29T23:54:33.459Z,33.93
2019-03-29T23:57:04.779Z,24.40
2019-03-29T23:59:36.459Z,27.97
